METAR Data
IDs: Format: Raw Decoded Include TAF

Data at: 0220 UTC 19 Oct 2021

PABI 190153Z 11017KT 10SM SCT200 M03/M09 A2966 RMK AO2 SLP073 T10281089
PABI 190053Z 11018KT 10SM SCT200 M02/M09 A2967 RMK AO2 SLP076 T10221089
PABI 182353Z 11015KT 10SM SCT200 M02/M08 A2968 RMK AO2 SLP079 T10221083 11022 21044 55000
PABI 182253Z AUTO 12013KT 10SM BKN200 M03/M09 A2968 RMK AO2 SLP080 T10331089 TSNO
PABI 182153Z 12014G25KT 10SM SCT200 M03/M09 A2968 RMK AO2 PK WND 12026/2109 SLP078 T10281089
PABI 182053Z 12018G26KT 10SM SCT200 M03/M09 A2968 RMK AO2 PK WND 11028/2003 SLP079 T10331089 50004
PABI 181953Z 11017KT 10SM BKN200 M03/M09 A2968 RMK AO2 SLP080 CIG THN T10331089
PABI 181853Z 11017KT 10SM BKN200 M04/M09 A2968 RMK AO2 SLP080 CIG THN T10391094
PABI 181753Z 11018KT 10SM BKN200 M04/M09 A2967 RMK AO2 SLP075 CIG THN T10441094 11039 21050 50006
PABI 181653Z 12016KT 10SM BKN200 M04/M09 A2967 RMK AO2 SLP076 T10441094
PABI 181553Z 11018G26KT 10SM BKN200 M04/M09 A2966 RMK AO2 PK WND 11029/1503 SLP071 T10441094
PABI 181453Z 11023KT 10SM BKN200 M04/M09 A2965 RMK AO2 PK WND 11028/1447 SLP069 T10441094 50002
PABI 181353Z 11020KT 10SM BKN200 M04/M09 A2965 RMK AO2 SLP070 T10441094
PABI 181253Z AUTO 11016G21KT 10SM CLR M04/M09 A2965 RMK AO2 SLP070 T10441094 TSNO
PABI 181153Z AUTO 11016KT 10SM CLR M04/M09 A2964 RMK AO2 SLP066 T10441089 11033 21044 51004 TSNO
PABI 181053Z AUTO 11015KT 10SM CLR M04/M09 A2964 RMK AO2 SLP066 T10441089 TSNO
PABI 180953Z AUTO 11019G24KT 10SM CLR M04/M09 A2963 RMK AO2 SLP064 T10391089 TSNO
PABI 180853Z AUTO 11017KT 10SM CLR M04/M09 A2963 RMK AO2 SLP062 T10391089 410331072 51009 TSNO
PABI 180753Z AUTO 11016KT 10SM CLR M04/M09 A2962 RMK AO2 SLP060 T10391089 TSNO
PABI 180653Z AUTO 11018KT 10SM FEW120 M04/M08 A2961 RMK AO2 SLP058 T10391083 TSNO
PABI 180553Z AUTO 10015G23KT 10SM BKN120 M04/M08 A2960 RMK AO2 PK WND 11027/0514 SLP054 T10391083 11033 21039 53012 TSNO
PABI 180453Z 11019G27KT 10SM FEW075 SCT120 OVC190 M03/M08 A2958 RMK AO2 PK WND 11027/0448 SLP048 T10331083
PABI 180353Z 10019KT 10SM FEW075 SCT110 OVC200 M03/M08 A2958 RMK AO2 PK WND 11027/0313 SLP045 T10331083
PABI 180253Z 10018KT 10SM FEW075 SCT110 BKN200 M04/M09 A2956 RMK AO2 PK WND 11027/0206 SLP042 T10391089 53007
PABI 180153Z 11018KT 10SM FEW075 SCT110 OVC180 M04/M09 A2955 RMK AO2 PK WND 10027/0104 SLP037 BINOVC T10391089
PABI 180053Z 11021G27KT 10SM FEW075 FEW110 OVC180 M03/M08 A2954 RMK AO2 PK WND 10027/0052 SLP034 BINOVC T10331083
PABI 172353Z 11021G27KT 10SM FEW070 FEW110 OVC180 M04/M09 A2954 RMK AO2 PK WND 11030/2306 SLP034 BINOVC T10391089 11033 21067 53001
PABI 172253Z 12022G30KT 10SM FEW070 FEW110 BKN200 M04/M09 A2953 RMK AO2 PK WND 11030/2217 SLP032 CIG THN T10441094
PABI 172153Z 11020G26KT 10SM FEW070 FEW110 BKN200 M05/M09 A2954 RMK AO2 PK WND 10031/2124 SLP033 CIG THN T10501094
PABI 172053Z 11021G27KT 10SM FEW070 FEW110 BKN200 M05/M09 A2954 RMK AO2 PK WND 10030/2026 SLP034 T10501094 50003
PABI 171953Z 10023KT 10SM FEW110 BKN180 M06/M09 A2955 RMK AO2 PK WND 11030/1859 SLP036 T10561094
PABI 171853Z 11023G29KT 10SM FEW070 FEW100 BKN180 M06/M09 A2954 RMK AO2 PK WND 11030/1843 SLP032 T10611094
PABI 171753Z 11024G29KT 10SM FEW070 FEW100 BKN180 M07/M10 A2953 RMK AO2 PK WND 11029/1751 SLP031 T10671100 11067 21072 56009
PABI 171653Z 11020KT 10SM FEW100 BKN180 M07/M10 A2954 RMK AO2 PK WND 10026/1559 SLP035 CIG THN T10721100
PABI 171553Z 10020G28KT 10SM SCT120 BKN180 M07/M10 A2955 RMK AO2 PK WND 11030/1542 SLP037 T10721100
PABI 171453Z 11016G24KT 10SM FEW020 M07/M10 A2956 RMK AO2 PK WND 11028/1355 SLP040 T10721100 56016